createdAt,value
2023-05-08T00:01:10.905Z,71.95
2023-05-08T00:03:39.549Z,72.00
2023-05-08T00:06:09.057Z,72.02
2023-05-08T00:08:37.897Z,72.09
2023-05-08T00:11:06.418Z,72.07
2023-05-08T00:13:34.865Z,72.38
2023-05-08T00:16:03.620Z,72.23
2023-05-08T00:18:32.330Z,72.45
2023-05-08T00:21:00.738Z,72.63
2023-05-08T00:23:31.006Z,72.77
2023-05-08T00:25:59.461Z,72.80
2023-05-08T00:28:28.168Z,72.74
2023-05-08T00:30:56.712Z,72.85
2023-05-08T00:33:25.350Z,72.97
2023-05-08T00:35:59.408Z,72.88
2023-05-08T00:38:26.991Z,73.01
2023-05-08T00:40:55.560Z,73.19
2023-05-08T00:43:27.489Z,73.00
2023-05-08T00:45:59.588Z,73.12
2023-05-08T00:48:30.298Z,73.10
2023-05-08T00:50:59.048Z,73.37
2023-05-08T00:53:28.198Z,73.48
2023-05-08T00:55:57.146Z,73.48
2023-05-08T00:58:27.396Z,73.45
2023-05-08T01:00:56.805Z,73.44
2023-05-08T01:03:26.306Z,73.61
2023-05-08T01:05:58.240Z,73.81
2023-05-08T01:08:26.876Z,73.76
2023-05-08T01:11:04.481Z,73.85
2023-05-08T01:13:42.769Z,74.01
2023-05-08T01:16:16.139Z,74.02
2023-05-08T01:18:51.229Z,73.98
2023-05-08T01:21:27.948Z,73.91
2023-05-08T01:24:24.379Z,73.88
2023-05-08T01:27:16.760Z,74.18
2023-05-08T01:30:16.436Z,74.22
2023-05-08T01:32:48.485Z,74.22
2023-05-08T01:35:24.164Z,74.33
2023-05-08T01:37:59.690Z,74.14
2023-05-08T01:40:35.263Z,74.42
2023-05-08T01:43:14.576Z,74.61
2023-05-08T01:45:48.496Z,74.89
2023-05-08T01:48:22.931Z,74.73
2023-05-08T01:50:57.085Z,74.98
2023-05-08T01:53:29.155Z,75.05
2023-05-08T01:56:03.947Z,75.01
2023-05-08T01:58:33.957Z,75.01
2023-05-08T02:01:03.157Z,75.13
2023-05-08T02:03:32.199Z,75.08
2023-05-08T02:06:04.578Z,75.22
2023-05-08T02:08:34.703Z,75.19
2023-05-08T02:11:05.277Z,75.46
2023-05-08T02:13:34.518Z,75.54
2023-05-08T02:16:06.635Z,75.51
2023-05-08T02:18:36.570Z,75.93
2023-05-08T02:21:06.255Z,75.96
2023-05-08T02:23:35.981Z,75.74
2023-05-08T02:26:06.023Z,75.85
2023-05-08T02:28:35.748Z,76.16
2023-05-08T02:31:06.175Z,76.05
2023-05-08T02:33:35.390Z,76.07
2023-05-08T02:36:05.177Z,75.97
2023-05-08T02:38:35.885Z,76.12
2023-05-08T02:41:06.805Z,75.99
2023-05-08T02:43:36.111Z,76.17
2023-05-08T02:46:18.524Z,76.05
2023-05-08T02:48:57.153Z,76.17
2023-05-08T02:51:32.877Z,76.10
2023-05-08T02:54:08.278Z,76.20
2023-05-08T02:56:39.230Z,76.07
2023-05-08T02:59:17.144Z,76.07
2023-05-08T03:01:49.741Z,76.12
2023-05-08T03:04:26.060Z,76.05
2023-05-08T03:06:57.221Z,76.18
2023-05-08T03:09:32.149Z,76.26
2023-05-08T03:12:03.971Z,76.38
2023-05-08T03:14:35.661Z,76.40
2023-05-08T03:17:06.512Z,76.30
2023-05-08T03:19:37.734Z,76.35
2023-05-08T03:22:08.447Z,76.38
2023-05-08T03:24:38.619Z,76.60
2023-05-08T03:27:09.541Z,76.50
2023-05-08T03:29:39.254Z,76.39
2023-05-08T03:32:08.136Z,76.51
2023-05-08T03:34:37.317Z,76.26
2023-05-08T03:37:06.155Z,76.44
2023-05-08T03:39:35.078Z,76.47
2023-05-08T03:42:06.177Z,76.99
2023-05-08T03:44:35.088Z,77.30
2023-05-08T03:47:04.131Z,77.58
2023-05-08T03:49:34.177Z,77.55
2023-05-08T03:52:03.249Z,77.86
2023-05-08T03:54:31.632Z,78.05
2023-05-08T03:57:00.536Z,77.98
2023-05-08T03:59:36.270Z,78.02
2023-05-08T04:02:12.837Z,78.02
2023-05-08T04:04:42.289Z,78.21
2023-05-08T04:07:14.186Z,78.35
2023-05-08T04:09:49.992Z,78.44
2023-05-08T04:12:22.182Z,78.43
2023-05-08T04:14:56.573Z,78.54
2023-05-08T04:17:39.220Z,78.47
2023-05-08T04:20:13.857Z,78.66
2023-05-08T04:22:43.522Z,78.42
2023-05-08T04:25:13.672Z,78.36
2023-05-08T04:27:45.393Z,78.29
2023-05-08T04:30:15.299Z,78.14
2023-05-08T04:32:46.164Z,78.19
2023-05-08T04:35:16.070Z,77.63
2023-05-08T04:37:44.906Z,77.82
2023-05-08T04:40:14.156Z,77.82
2023-05-08T04:42:46.723Z,77.44
2023-05-08T04:45:16.890Z,77.27
2023-05-08T04:47:48.216Z,77.61
2023-05-08T04:50:17.137Z,77.11
2023-05-08T04:52:45.688Z,76.87
2023-05-08T04:55:14.566Z,76.63
2023-05-08T04:57:43.938Z,76.48
2023-05-08T05:00:15.412Z,76.60
2023-05-08T05:02:44.129Z,76.19
2023-05-08T05:05:15.586Z,75.82
2023-05-08T05:07:44.226Z,75.70
2023-05-08T05:10:12.749Z,75.58
2023-05-08T05:12:41.268Z,75.45
2023-05-08T05:15:11.375Z,75.23
2023-05-08T05:17:39.966Z,74.69
2023-05-08T05:20:12.743Z,74.46
2023-05-08T05:22:41.527Z,74.15
2023-05-08T05:25:12.731Z,74.24
2023-05-08T05:27:41.726Z,74.17
2023-05-08T05:30:12.101Z,74.03
2023-05-08T05:32:40.993Z,73.56
2023-05-08T05:35:10.877Z,72.89
2023-05-08T05:37:39.499Z,72.64
2023-05-08T05:40:12.777Z,72.30
2023-05-08T05:42:49.810Z,72.49
2023-05-08T05:45:18.490Z,72.28
2023-05-08T05:47:50.777Z,72.27
2023-05-08T05:50:21.045Z,71.84
2023-05-08T05:52:50.040Z,71.84
2023-05-08T05:55:18.644Z,71.77
2023-05-08T05:57:48.374Z,71.33
2023-05-08T06:00:21.168Z,70.85
2023-05-08T06:02:49.983Z,69.85
2023-05-08T06:05:19.073Z,69.61
2023-05-08T06:07:49.224Z,69.57
2023-05-08T06:10:18.096Z,69.30
2023-05-08T06:12:47.093Z,69.19
2023-05-08T06:15:15.778Z,67.93
2023-05-08T06:17:48.907Z,68.28
2023-05-08T06:20:18.473Z,68.04
2023-05-08T06:22:48.525Z,67.97
2023-05-08T06:25:17.333Z,66.67
2023-05-08T06:27:46.186Z,67.10
2023-05-08T06:30:15.814Z,66.65
2023-05-08T06:32:44.517Z,66.27
2023-05-08T06:35:15.029Z,65.44
2023-05-08T06:37:43.901Z,64.61
2023-05-08T06:40:14.389Z,65.13
2023-05-08T06:42:43.737Z,64.68
2023-05-08T06:45:13.133Z,64.22
2023-05-08T06:47:41.967Z,64.42
2023-05-08T06:50:12.404Z,63.73
2023-05-08T06:52:43.460Z,63.39
2023-05-08T06:55:12.270Z,62.81
2023-05-08T06:57:45.162Z,62.70
2023-05-08T07:00:15.809Z,62.20
2023-05-08T07:02:44.313Z,62.18
2023-05-08T07:05:20.203Z,61.95
2023-05-08T07:07:50.174Z,61.33
2023-05-08T07:10:22.998Z,61.52
2023-05-08T07:12:52.529Z,61.38
2023-05-08T07:15:26.345Z,61.68
2023-05-08T07:17:54.613Z,60.57
2023-05-08T07:20:24.626Z,61.00
2023-05-08T07:22:53.332Z,60.78
2023-05-08T07:25:28.541Z,60.02
2023-05-08T07:27:57.787Z,59.27
2023-05-08T07:30:29.074Z,59.10
2023-05-08T07:32:58.042Z,58.91
2023-05-08T07:35:28.948Z,59.00
2023-05-08T07:37:59.012Z,58.12
2023-05-08T07:40:27.779Z,58.43
2023-05-08T07:42:56.205Z,59.07
2023-05-08T07:45:25.373Z,58.18
2023-05-08T07:47:55.821Z,56.81
2023-05-08T07:50:26.006Z,56.23
2023-05-08T07:53:01.125Z,55.28
2023-05-08T07:55:30.840Z,55.63
2023-05-08T07:57:59.713Z,55.33
2023-05-08T08:00:29.196Z,54.99
2023-05-08T08:02:58.349Z,54.70
2023-05-08T08:05:27.061Z,53.45
2023-05-08T08:07:58.756Z,52.86
2023-05-08T08:10:28.495Z,53.14
2023-05-08T08:12:58.302Z,53.53
2023-05-08T08:15:31.812Z,49.62
2023-05-08T08:18:01.024Z,50.67
2023-05-08T08:20:29.975Z,51.00
2023-05-08T08:22:58.890Z,50.07
2023-05-08T08:25:34.712Z,49.61
2023-05-08T08:28:05.648Z,49.49
2023-05-08T08:30:34.155Z,49.48
2023-05-08T08:33:02.790Z,50.14
2023-05-08T08:35:32.369Z,49.92
2023-05-08T08:38:01.855Z,48.48
2023-05-08T08:40:30.958Z,47.82
2023-05-08T08:42:59.791Z,48.58
2023-05-08T08:45:29.494Z,48.71
2023-05-08T08:48:01.353Z,48.12
2023-05-08T08:50:32.567Z,46.20
2023-05-08T08:53:08.037Z,47.56
2023-05-08T08:55:40.462Z,47.63
2023-05-08T08:58:15.384Z,45.55
2023-05-08T09:00:46.889Z,44.95
2023-05-08T09:03:16.313Z,42.05
2023-05-08T09:05:48.618Z,42.26
2023-05-08T09:08:19.035Z,41.71
2023-05-08T09:10:47.599Z,41.51
2023-05-08T09:13:19.686Z,43.04
2023-05-08T09:15:49.815Z,43.02
2023-05-08T09:18:18.715Z,38.96
2023-05-08T09:20:47.199Z,41.70
2023-05-08T09:23:16.953Z,40.14
2023-05-08T09:25:47.760Z,38.28
2023-05-08T09:28:24.615Z,37.79
2023-05-08T09:30:55.061Z,40.08
2023-05-08T09:33:25.158Z,39.86
2023-05-08T09:35:55.316Z,40.06
2023-05-08T09:38:38.664Z,39.63
2023-05-08T09:41:08.681Z,38.45
2023-05-08T09:43:37.784Z,39.69
2023-05-08T09:46:22.932Z,40.09
2023-05-08T09:48:52.307Z,38.39
2023-05-08T09:51:21.286Z,39.28
2023-05-08T09:53:52.956Z,38.79
2023-05-08T09:56:38.781Z,38.86
2023-05-08T09:59:25.614Z,39.11
2023-05-08T10:01:54.114Z,38.93
2023-05-08T10:04:33.257Z,39.25
2023-05-08T10:07:02.158Z,37.17
2023-05-08T10:09:43.070Z,36.42
2023-05-08T10:12:21.462Z,35.13
2023-05-08T10:14:50.304Z,34.48
2023-05-08T10:17:24.667Z,34.53
2023-05-08T10:19:58.308Z,34.38
2023-05-08T10:22:27.551Z,34.46
2023-05-08T10:24:58.293Z,35.15
2023-05-08T10:27:44.486Z,35.11
2023-05-08T10:30:14.837Z,35.13
2023-05-08T10:32:45.400Z,34.70
2023-05-08T10:35:14.334Z,34.21
2023-05-08T10:37:45.732Z,34.04
2023-05-08T10:40:15.702Z,33.24
2023-05-08T10:42:44.788Z,33.15
2023-05-08T10:45:13.733Z,32.33
2023-05-08T10:47:48.823Z,32.56
2023-05-08T10:50:25.402Z,33.55
2023-05-08T10:53:01.643Z,33.11
2023-05-08T10:55:34.370Z,31.64
2023-05-08T10:58:29.536Z,32.12
2023-05-08T11:01:17.373Z,29.92
2023-05-08T11:03:54.479Z,30.17
2023-05-08T11:06:43.513Z,29.73
2023-05-08T11:09:20.711Z,30.18
2023-05-08T11:11:59.970Z,29.57
2023-05-08T11:14:34.406Z,30.00
2023-05-08T11:17:07.349Z,30.08
2023-05-08T11:19:36.913Z,30.68
2023-05-08T11:22:26.372Z,30.02
2023-05-08T11:24:57.191Z,30.78
2023-05-08T11:28:03.433Z,30.84
2023-05-08T11:30:39.317Z,29.51
2023-05-08T11:33:15.529Z,29.60
2023-05-08T11:35:52.909Z,28.87
2023-05-08T11:38:27.465Z,28.67
2023-05-08T11:40:59.060Z,29.18
2023-05-08T11:44:16.979Z,27.92
2023-05-08T11:46:50.241Z,28.54
2023-05-08T11:49:25.985Z,29.12
2023-05-08T11:52:00.013Z,27.95
2023-05-08T11:54:31.400Z,27.18
2023-05-08T11:57:01.290Z,27.50
2023-05-08T11:59:34.545Z,28.07
2023-05-08T12:04:45.582Z,29.37
2023-05-08T12:07:15.733Z,29.64
2023-05-08T12:09:44.291Z,29.88
2023-05-08T12:12:13.035Z,29.43
2023-05-08T12:14:41.679Z,28.34
2023-05-08T12:17:11.110Z,28.23
2023-05-08T12:19:40.057Z,26.51
2023-05-08T12:22:10.744Z,26.04
2023-05-08T12:24:40.181Z,26.54
2023-05-08T12:27:11.102Z,26.36
2023-05-08T12:29:44.613Z,26.57
2023-05-08T12:32:13.043Z,26.98
2023-05-08T12:34:42.806Z,27.47
2023-05-08T12:37:11.149Z,26.94
2023-05-08T12:39:44.976Z,26.16
2023-05-08T12:42:13.775Z,25.65
2023-05-08T12:44:51.175Z,26.19
2023-05-08T12:47:20.497Z,26.42
2023-05-08T12:49:52.546Z,25.82
2023-05-08T12:52:23.642Z,25.48
2023-05-08T12:54:52.068Z,26.15
2023-05-08T12:57:22.229Z,26.13
2023-05-08T12:59:51.201Z,25.33
2023-05-08T13:02:23.149Z,26.03
2023-05-08T13:04:55.392Z,26.71
2023-05-08T13:07:24.068Z,26.83
2023-05-08T13:10:01.622Z,27.70
2023-05-08T13:12:30.269Z,27.70
2023-05-08T13:14:59.039Z,28.12
2023-05-08T13:17:27.573Z,28.23
2023-05-08T13:19:56.126Z,28.47
2023-05-08T13:22:27.380Z,27.09
2023-05-08T13:24:56.173Z,26.25
2023-05-08T13:27:24.501Z,26.10
2023-05-08T13:29:53.126Z,26.25
2023-05-08T13:32:22.129Z,27.56
2023-05-08T13:34:52.811Z,27.51
2023-05-08T13:37:23.751Z,27.46
2023-05-08T13:39:52.320Z,26.79
2023-05-08T13:42:20.834Z,27.01
2023-05-08T13:44:49.497Z,26.68
2023-05-08T13:47:17.887Z,27.25
2023-05-08T13:49:46.810Z,27.36
2023-05-08T13:52:15.541Z,26.52
2023-05-08T13:54:44.176Z,25.55
2023-05-08T13:57:12.625Z,24.96
2023-05-08T13:59:41.603Z,23.92
2023-05-08T14:02:10.206Z,23.92
2023-05-08T14:04:38.933Z,24.15
2023-05-08T14:07:08.167Z,23.88
2023-05-08T14:09:37.944Z,23.77
2023-05-08T14:12:07.870Z,22.96
2023-05-08T14:14:36.808Z,23.80
2023-05-08T14:17:05.508Z,24.64
2023-05-08T14:19:34.013Z,25.23
2023-05-08T14:22:03.433Z,25.40
2023-05-08T14:24:32.252Z,25.73
2023-05-08T14:27:05.072Z,26.20
2023-05-08T14:29:33.619Z,26.68
2023-05-08T14:32:02.386Z,26.37
2023-05-08T14:34:30.894Z,26.17
2023-05-08T14:36:59.391Z,25.96
2023-05-08T14:39:27.969Z,26.08
2023-05-08T14:42:20.703Z,25.20
2023-05-08T14:44:45.139Z,24.70
2023-05-08T14:47:13.522Z,24.58
2023-05-08T14:49:42.606Z,25.20
2023-05-08T14:52:11.246Z,25.65
2023-05-08T14:54:40.559Z,26.01
2023-05-08T14:57:09.838Z,25.79
2023-05-08T14:59:49.017Z,26.41
2023-05-08T15:02:23.995Z,26.30
2023-05-08T15:04:53.276Z,26.79
2023-05-08T15:07:22.204Z,27.14
2023-05-08T15:09:52.681Z,27.48
2023-05-08T15:12:21.025Z,27.70
2023-05-08T15:14:49.406Z,28.15
2023-05-08T15:17:17.736Z,28.67
2023-05-08T15:19:46.150Z,28.90
2023-05-08T15:22:15.698Z,28.72
2023-05-08T15:24:44.186Z,28.46
2023-05-08T15:27:12.615Z,28.37
2023-05-08T15:29:41.022Z,28.18
2023-05-08T15:32:09.873Z,28.25
2023-05-08T15:34:40.522Z,28.01
2023-05-08T15:37:09.402Z,27.20
2023-05-08T15:39:38.194Z,26.62
2023-05-08T15:42:07.473Z,27.55
2023-05-08T15:44:54.093Z,25.98
2023-05-08T15:47:23.645Z,26.18
2023-05-08T15:49:52.200Z,27.12
2023-05-08T15:52:22.201Z,27.07
2023-05-08T15:54:51.006Z,27.33
2023-05-08T15:57:19.399Z,27.51
2023-05-08T15:59:48.011Z,27.60
2023-05-08T16:02:17.023Z,27.61
2023-05-08T16:04:45.758Z,27.28
2023-05-08T16:07:14.461Z,26.80
2023-05-08T16:09:45.192Z,26.06
2023-05-08T16:12:15.449Z,26.23
2023-05-08T16:14:44.285Z,25.76
2023-05-08T16:17:12.730Z,25.82
2023-05-08T16:19:41.165Z,25.65
2023-05-08T16:22:09.915Z,25.23
2023-05-08T16:24:40.204Z,25.50
2023-05-08T16:27:11.775Z,25.29
2023-05-08T16:29:40.219Z,25.70
2023-05-08T16:32:12.009Z,26.02
2023-05-08T16:34:41.202Z,25.91
2023-05-08T16:37:09.762Z,26.24
2023-05-08T16:39:39.001Z,26.41
2023-05-08T16:42:07.981Z,25.94
2023-05-08T16:44:38.481Z,26.37
2023-05-08T16:47:07.752Z,26.46
2023-05-08T16:49:36.752Z,26.87
2023-05-08T16:52:05.674Z,27.04
2023-05-08T16:54:34.598Z,27.12
2023-05-08T16:57:03.241Z,27.24
2023-05-08T16:59:32.368Z,27.34
2023-05-08T17:02:01.337Z,27.19
2023-05-08T17:04:32.328Z,27.38
2023-05-08T17:07:01.160Z,27.70
2023-05-08T17:09:29.542Z,28.14
2023-05-08T17:11:58.689Z,28.45
2023-05-08T17:14:28.367Z,28.70
2023-05-08T17:16:57.677Z,29.36
2023-05-08T17:19:26.129Z,29.62
2023-05-08T17:21:54.485Z,29.99
2023-05-08T17:24:23.981Z,30.11
2023-05-08T17:26:53.588Z,30.22
2023-05-08T17:29:22.161Z,30.29
2023-05-08T17:31:50.635Z,30.65
2023-05-08T17:34:19.657Z,30.70
2023-05-08T17:36:49.350Z,30.90
2023-05-08T17:39:20.550Z,31.06
2023-05-08T17:41:50.052Z,31.38
2023-05-08T17:44:18.947Z,31.54
2023-05-08T17:46:47.864Z,31.71
2023-05-08T17:49:18.611Z,31.78
2023-05-08T17:51:49.044Z,31.93
2023-05-08T17:54:17.606Z,31.94
2023-05-08T17:56:46.192Z,32.05
2023-05-08T17:59:15.097Z,32.51
2023-05-08T18:01:48.970Z,32.66
2023-05-08T18:04:17.441Z,32.94
2023-05-08T18:06:51.125Z,33.53
2023-05-08T18:09:20.428Z,33.62
2023-05-08T18:11:48.912Z,33.90
2023-05-08T18:14:17.388Z,34.26
2023-05-08T18:16:46.277Z,34.74
2023-05-08T18:19:15.122Z,35.01
2023-05-08T18:21:43.618Z,35.42
2023-05-08T18:24:12.604Z,35.88
2023-05-08T18:26:41.900Z,35.89
2023-05-08T18:29:10.486Z,35.79
2023-05-08T18:31:39.171Z,36.27
2023-05-08T18:34:07.724Z,36.33
2023-05-08T18:36:37.485Z,36.35
2023-05-08T18:39:05.992Z,37.00
2023-05-08T18:41:36.044Z,37.63
2023-05-08T18:44:05.350Z,37.98
2023-05-08T18:46:33.810Z,37.91
2023-05-08T18:49:02.427Z,37.90
2023-05-08T18:51:31.380Z,37.93
2023-05-08T18:54:00.190Z,38.26
2023-05-08T18:56:28.879Z,38.42
2023-05-08T18:58:59.582Z,39.29
2023-05-08T19:01:28.221Z,39.74
2023-05-08T19:03:57.360Z,39.92
2023-05-08T19:06:26.402Z,40.14
2023-05-08T19:08:55.392Z,40.45
2023-05-08T19:11:25.689Z,41.14
2023-05-08T19:13:56.165Z,41.80
2023-05-08T19:16:25.662Z,42.34
2023-05-08T19:18:55.270Z,42.63
2023-05-08T19:21:24.119Z,42.45
2023-05-08T19:23:53.782Z,42.17
2023-05-08T19:26:23.070Z,42.35
2023-05-08T19:28:55.113Z,42.34
2023-05-08T19:31:23.725Z,42.31
2023-05-08T19:33:52.127Z,42.14
2023-05-08T19:36:20.465Z,42.30
2023-05-08T19:38:50.442Z,43.03
2023-05-08T19:41:19.549Z,43.63
2023-05-08T19:43:48.555Z,43.92
2023-05-08T19:46:17.169Z,44.00
2023-05-08T19:48:46.626Z,44.00
2023-05-08T19:51:16.093Z,44.12
2023-05-08T19:53:46.456Z,45.10
2023-05-08T19:56:15.257Z,45.62
2023-05-08T19:58:46.138Z,46.00
2023-05-08T20:01:15.172Z,46.28
2023-05-08T20:03:43.848Z,46.72
2023-05-08T20:06:13.861Z,47.20
2023-05-08T20:08:43.657Z,47.70
2023-05-08T20:11:13.931Z,48.09
2023-05-08T20:13:43.013Z,48.32
2023-05-08T20:16:11.854Z,48.86
2023-05-08T20:18:40.739Z,48.97
2023-05-08T20:21:09.951Z,49.69
2023-05-08T20:23:39.695Z,49.88
2023-05-08T20:26:08.596Z,50.24
2023-05-08T20:28:38.954Z,50.67
2023-05-08T20:31:07.930Z,50.87
2023-05-08T20:33:37.091Z,51.29
2023-05-08T20:36:06.857Z,51.67
2023-05-08T20:38:36.265Z,51.87
2023-05-08T20:41:11.289Z,51.84
2023-05-08T20:43:40.855Z,52.20
2023-05-08T20:46:09.971Z,52.17
2023-05-08T20:48:39.198Z,52.51
2023-05-08T20:51:08.959Z,52.91
2023-05-08T20:53:38.453Z,53.02
2023-05-08T20:56:08.253Z,53.20
2023-05-08T20:58:37.874Z,53.53
2023-05-08T21:01:06.621Z,53.64
2023-05-08T21:03:35.507Z,54.03
2023-05-08T21:06:06.997Z,54.19
2023-05-08T21:08:35.561Z,54.61
2023-05-08T21:11:04.095Z,54.86
2023-05-08T21:13:34.455Z,55.19
2023-05-08T21:16:05.550Z,55.31
2023-05-08T21:18:36.389Z,55.65
2023-05-08T21:21:05.669Z,55.96
2023-05-08T21:23:34.652Z,56.17
2023-05-08T21:26:03.407Z,56.42
2023-05-08T21:28:31.944Z,56.72
2023-05-08T21:31:01.296Z,56.77
2023-05-08T21:33:29.997Z,56.97
2023-05-08T21:36:00.349Z,57.29
2023-05-08T21:38:30.108Z,57.44
2023-05-08T21:41:06.539Z,57.78
2023-05-08T21:43:35.441Z,58.02
2023-05-08T21:46:06.395Z,57.94
2023-05-08T21:48:35.250Z,58.21
2023-05-08T21:51:05.177Z,58.30
2023-05-08T21:53:34.220Z,58.48
2023-05-08T21:56:02.894Z,58.71
2023-05-08T21:58:31.511Z,58.83
2023-05-08T22:01:00.748Z,58.90
2023-05-08T22:03:30.305Z,59.08
2023-05-08T22:05:59.853Z,59.16
2023-05-08T22:08:28.889Z,59.45
2023-05-08T22:10:57.560Z,59.59
2023-05-08T22:13:26.030Z,59.82
2023-05-08T22:15:54.708Z,60.12
2023-05-08T22:18:26.062Z,60.47
2023-05-08T22:20:57.853Z,60.43
2023-05-08T22:23:26.382Z,60.53
2023-05-08T22:25:58.054Z,61.03
2023-05-08T22:28:31.912Z,61.14
2023-05-08T22:31:00.551Z,61.14
2023-05-08T22:33:33.398Z,60.93
2023-05-08T22:36:02.390Z,61.57
2023-05-08T22:38:32.055Z,61.43
2023-05-08T22:41:04.474Z,61.62
2023-05-08T22:43:34.173Z,62.35
2023-05-08T22:46:02.768Z,62.32
2023-05-08T22:48:32.263Z,62.51
2023-05-08T22:51:00.803Z,62.51
2023-05-08T22:53:31.888Z,62.69
2023-05-08T22:56:00.230Z,63.14
2023-05-08T22:58:29.980Z,62.86
2023-05-08T23:00:59.266Z,62.99
2023-05-08T23:03:28.137Z,63.06
2023-05-08T23:05:56.532Z,63.46
2023-05-08T23:08:25.090Z,63.59
2023-05-08T23:10:53.691Z,63.67
2023-05-08T23:13:22.401Z,64.11
2023-05-08T23:15:51.320Z,64.17
2023-05-08T23:18:20.733Z,64.37
2023-05-08T23:20:50.833Z,64.39
2023-05-08T23:23:19.666Z,64.48
2023-05-08T23:25:49.115Z,64.81
2023-05-08T23:28:17.746Z,64.97
2023-05-08T23:30:46.160Z,64.85
2023-05-08T23:33:17.098Z,64.89
2023-05-08T23:35:46.635Z,64.90
2023-05-08T23:38:15.507Z,64.88
2023-05-08T23:40:44.179Z,65.17
2023-05-08T23:43:12.815Z,65.39
2023-05-08T23:45:43.124Z,65.56
2023-05-08T23:48:11.627Z,65.44
2023-05-08T23:50:43.347Z,65.34
2023-05-08T23:53:13.008Z,65.46
2023-05-08T23:55:42.104Z,65.90
2023-05-08T23:58:10.726Z,65.79
